sensor_id;sensor_type;location;lat;lon;timestamp;P1;durP1;ratioP1;P2;durP2;ratioP2
27225;SDS011;14732;51.074;3.788;2023-07-31T00:01:28;18.10;;;5.40;;
27225;SDS011;14732;51.074;3.788;2023-07-31T00:03:55;23.77;;;6.00;;
27225;SDS011;14732;51.074;3.788;2023-07-31T00:06:32;18.55;;;5.55;;
27225;SDS011;14732;51.074;3.788;2023-07-31T00:09:00;18.15;;;5.53;;
27225;SDS011;14732;51.074;3.788;2023-07-31T00:11:27;12.32;;;5.20;;
27225;SDS011;14732;51.074;3.788;2023-07-31T00:13:55;19.80;;;5.57;;
27225;SDS011;14732;51.074;3.788;2023-07-31T00:16:22;18.25;;;5.38;;
27225;SDS011;14732;51.074;3.788;2023-07-31T00:18:50;24.20;;;5.53;;
27225;SDS011;14732;51.074;3.788;2023-07-31T00:21:31;19.25;;;4.95;;
27225;SDS011;14732;51.074;3.788;2023-07-31T00:23:58;16.67;;;4.80;;
27225;SDS011;14732;51.074;3.788;2023-07-31T00:26:26;16.80;;;5.18;;
27225;SDS011;14732;51.074;3.788;2023-07-31T00:28:54;17.67;;;5.40;;
27225;SDS011;14732;51.074;3.788;2023-07-31T00:31:21;14.98;;;4.90;;
27225;SDS011;14732;51.074;3.788;2023-07-31T00:33:48;16.98;;;5.70;;
27225;SDS011;14732;51.074;3.788;2023-07-31T00:36:31;25.38;;;5.78;;
27225;SDS011;14732;51.074;3.788;2023-07-31T00:39:03;22.98;;;5.10;;
27225;SDS011;14732;51.074;3.788;2023-07-31T00:41:39;19.20;;;5.80;;
27225;SDS011;14732;51.074;3.788;2023-07-31T00:44:10;16.00;;;4.90;;
27225;SDS011;14732;51.074;3.788;2023-07-31T00:46:38;15.75;;;4.70;;
27225;SDS011;14732;51.074;3.788;2023-07-31T00:49:05;16.48;;;5.40;;
27225;SDS011;14732;51.074;3.788;2023-07-31T00:51:34;20.35;;;5.78;;
27225;SDS011;14732;51.074;3.788;2023-07-31T00:54:04;20.40;;;5.22;;
27225;SDS011;14732;51.074;3.788;2023-07-31T00:56:39;16.83;;;5.07;;
27225;SDS011;14732;51.074;3.788;2023-07-31T00:59:18;19.42;;;5.00;;
27225;SDS011;14732;51.074;3.788;2023-07-31T01:01:45;16.17;;;5.38;;
27225;SDS011;14732;51.074;3.788;2023-07-31T01:04:13;19.17;;;5.45;;
27225;SDS011;14732;51.074;3.788;2023-07-31T01:06:59;16.58;;;5.07;;
27225;SDS011;14732;51.074;3.788;2023-07-31T01:09:40;20.02;;;5.65;;
27225;SDS011;14732;51.074;3.788;2023-07-31T01:12:15;16.80;;;4.97;;
27225;SDS011;14732;51.074;3.788;2023-07-31T01:15:01;14.38;;;4.70;;
27225;SDS011;14732;51.074;3.788;2023-07-31T01:17:32;19.67;;;5.33;;
27225;SDS011;14732;51.074;3.788;2023-07-31T01:20:01;18.42;;;5.28;;
27225;SDS011;14732;51.074;3.788;2023-07-31T01:25:07;16.52;;;5.32;;
27225;SDS011;14732;51.074;3.788;2023-07-31T01:27:56;18.50;;;5.03;;
27225;SDS011;14732;51.074;3.788;2023-07-31T01:30:32;14.35;;;4.50;;
27225;SDS011;14732;51.074;3.788;2023-07-31T01:33:01;15.15;;;4.55;;
27225;SDS011;14732;51.074;3.788;2023-07-31T01:35:35;11.82;;;4.45;;
27225;SDS011;14732;51.074;3.788;2023-07-31T01:38:03;15.75;;;4.82;;
27225;SDS011;14732;51.074;3.788;2023-07-31T01:40:31;16.08;;;5.10;;
27225;SDS011;14732;51.074;3.788;2023-07-31T01:42:59;16.27;;;5.18;;
27225;SDS011;14732;51.074;3.788;2023-07-31T01:45:27;14.02;;;4.47;;
27225;SDS011;14732;51.074;3.788;2023-07-31T01:47:55;16.50;;;5.25;;
27225;SDS011;14732;51.074;3.788;2023-07-31T01:50:22;10.10;;;4.38;;
27225;SDS011;14732;51.074;3.788;2023-07-31T01:52:49;17.10;;;4.55;;
27225;SDS011;14732;51.074;3.788;2023-07-31T01:55:19;17.83;;;4.80;;
27225;SDS011;14732;51.074;3.788;2023-07-31T01:57:47;12.48;;;3.78;;
27225;SDS011;14732;51.074;3.788;2023-07-31T02:00:15;15.45;;;4.05;;
27225;SDS011;14732;51.074;3.788;2023-07-31T02:02:43;15.60;;;4.57;;
27225;SDS011;14732;51.074;3.788;2023-07-31T02:05:11;16.20;;;5.00;;
27225;SDS011;14732;51.074;3.788;2023-07-31T02:07:38;14.65;;;4.07;;
27225;SDS011;14732;51.074;3.788;2023-07-31T02:10:05;13.75;;;4.13;;
27225;SDS011;14732;51.074;3.788;2023-07-31T02:12:33;16.73;;;4.45;;
27225;SDS011;14732;51.074;3.788;2023-07-31T02:15:01;14.50;;;4.60;;
27225;SDS011;14732;51.074;3.788;2023-07-31T02:17:28;14.27;;;4.45;;
27225;SDS011;14732;51.074;3.788;2023-07-31T02:19:56;16.17;;;4.25;;
27225;SDS011;14732;51.074;3.788;2023-07-31T02:22:24;14.70;;;4.18;;
27225;SDS011;14732;51.074;3.788;2023-07-31T02:24:51;11.68;;;4.25;;
27225;SDS011;14732;51.074;3.788;2023-07-31T02:27:19;16.83;;;4.05;;
27225;SDS011;14732;51.074;3.788;2023-07-31T02:29:49;15.02;;;4.50;;
27225;SDS011;14732;51.074;3.788;2023-07-31T02:32:17;15.18;;;4.40;;
27225;SDS011;14732;51.074;3.788;2023-07-31T02:34:44;16.63;;;4.55;;
27225;SDS011;14732;51.074;3.788;2023-07-31T02:37:11;13.32;;;3.90;;
27225;SDS011;14732;51.074;3.788;2023-07-31T02:39:45;10.98;;;4.13;;
27225;SDS011;14732;51.074;3.788;2023-07-31T02:42:15;13.75;;;3.95;;
27225;SDS011;14732;51.074;3.788;2023-07-31T02:44:43;12.68;;;4.15;;
27225;SDS011;14732;51.074;3.788;2023-07-31T02:47:15;13.77;;;4.03;;
27225;SDS011;14732;51.074;3.788;2023-07-31T02:49:43;15.75;;;5.28;;
27225;SDS011;14732;51.074;3.788;2023-07-31T02:52:10;11.68;;;3.50;;
27225;SDS011;14732;51.074;3.788;2023-07-31T02:54:38;11.63;;;4.32;;
27225;SDS011;14732;51.074;3.788;2023-07-31T02:57:06;12.73;;;4.05;;
27225;SDS011;14732;51.074;3.788;2023-07-31T02:59:34;13.95;;;4.78;;
27225;SDS011;14732;51.074;3.788;2023-07-31T03:02:01;14.93;;;4.53;;
27225;SDS011;14732;51.074;3.788;2023-07-31T03:04:29;16.52;;;3.80;;
27225;SDS011;14732;51.074;3.788;2023-07-31T03:07:00;18.98;;;5.07;;
27225;SDS011;14732;51.074;3.788;2023-07-31T03:09:27;15.05;;;4.43;;
27225;SDS011;14732;51.074;3.788;2023-07-31T03:11:55;15.88;;;4.30;;
27225;SDS011;14732;51.074;3.788;2023-07-31T03:14:22;16.17;;;4.50;;
27225;SDS011;14732;51.074;3.788;2023-07-31T03:16:52;21.40;;;4.43;;
27225;SDS011;14732;51.074;3.788;2023-07-31T03:19:20;11.32;;;4.07;;
27225;SDS011;14732;51.074;3.788;2023-07-31T03:21:47;16.13;;;5.03;;
27225;SDS011;14732;51.074;3.788;2023-07-31T03:24:15;19.63;;;4.95;;
27225;SDS011;14732;51.074;3.788;2023-07-31T03:26:43;20.13;;;4.80;;
27225;SDS011;14732;51.074;3.788;2023-07-31T03:29:11;13.88;;;4.90;;
27225;SDS011;14732;51.074;3.788;2023-07-31T03:31:38;13.90;;;4.32;;
27225;SDS011;14732;51.074;3.788;2023-07-31T03:34:05;13.95;;;4.78;;
27225;SDS011;14732;51.074;3.788;2023-07-31T03:36:33;14.85;;;5.78;;
27225;SDS011;14732;51.074;3.788;2023-07-31T03:39:00;17.85;;;5.15;;
27225;SDS011;14732;51.074;3.788;2023-07-31T03:41:28;12.20;;;4.95;;
27225;SDS011;14732;51.074;3.788;2023-07-31T03:43:56;17.98;;;5.88;;
27225;SDS011;14732;51.074;3.788;2023-07-31T03:46:24;18.02;;;5.63;;
27225;SDS011;14732;51.074;3.788;2023-07-31T03:48:52;15.77;;;5.55;;
27225;SDS011;14732;51.074;3.788;2023-07-31T03:51:35;16.23;;;5.82;;
27225;SDS011;14732;51.074;3.788;2023-07-31T03:54:03;17.58;;;5.68;;
27225;SDS011;14732;51.074;3.788;2023-07-31T03:56:30;14.38;;;5.00;;
27225;SDS011;14732;51.074;3.788;2023-07-31T03:58:58;19.85;;;5.70;;
27225;SDS011;14732;51.074;3.788;2023-07-31T04:01:26;16.25;;;5.57;;
27225;SDS011;14732;51.074;3.788;2023-07-31T04:03:54;15.95;;;5.70;;
27225;SDS011;14732;51.074;3.788;2023-07-31T04:06:35;20.83;;;6.45;;
27225;SDS011;14732;51.074;3.788;2023-07-31T04:09:03;19.08;;;5.88;;
27225;SDS011;14732;51.074;3.788;2023-07-31T04:11:30;21.02;;;6.30;;
27225;SDS011;14732;51.074;3.788;2023-07-31T04:13:57;18.70;;;6.28;;
27225;SDS011;14732;51.074;3.788;2023-07-31T04:16:25;17.65;;;6.00;;
27225;SDS011;14732;51.074;3.788;2023-07-31T04:19:04;17.20;;;6.15;;
27225;SDS011;14732;51.074;3.788;2023-07-31T04:26:52;15.27;;;6.00;;
27225;SDS011;14732;51.074;3.788;2023-07-31T04:29:20;15.32;;;5.97;;
27225;SDS011;14732;51.074;3.788;2023-07-31T04:31:51;14.50;;;5.68;;
27225;SDS011;14732;51.074;3.788;2023-07-31T04:34:20;15.25;;;5.43;;
27225;SDS011;14732;51.074;3.788;2023-07-31T04:37:01;11.32;;;5.07;;
27225;SDS011;14732;51.074;3.788;2023-07-31T04:39:34;15.52;;;5.28;;
27225;SDS011;14732;51.074;3.788;2023-07-31T04:42:06;13.68;;;4.75;;
27225;SDS011;14732;51.074;3.788;2023-07-31T04:44:39;13.00;;;4.80;;
27225;SDS011;14732;51.074;3.788;2023-07-31T04:47:11;10.70;;;5.05;;
27225;SDS011;14732;51.074;3.788;2023-07-31T04:49:46;15.30;;;5.10;;
27225;SDS011;14732;51.074;3.788;2023-07-31T04:52:19;15.27;;;4.95;;
27225;SDS011;14732;51.074;3.788;2023-07-31T04:54:50;8.32;;;4.20;;
27225;SDS011;14732;51.074;3.788;2023-07-31T04:57:20;12.27;;;4.88;;
27225;SDS011;14732;51.074;3.788;2023-07-31T04:59:48;11.35;;;4.57;;
27225;SDS011;14732;51.074;3.788;2023-07-31T05:02:17;10.65;;;4.53;;
27225;SDS011;14732;51.074;3.788;2023-07-31T05:04:51;10.30;;;4.07;;
27225;SDS011;14732;51.074;3.788;2023-07-31T05:07:19;12.95;;;4.55;;
27225;SDS011;14732;51.074;3.788;2023-07-31T05:09:55;9.00;;;4.18;;
27225;SDS011;14732;51.074;3.788;2023-07-31T05:12:23;10.77;;;4.40;;
27225;SDS011;14732;51.074;3.788;2023-07-31T05:14:52;9.15;;;5.10;;
27225;SDS011;14732;51.074;3.788;2023-07-31T05:17:21;11.63;;;5.20;;
27225;SDS011;14732;51.074;3.788;2023-07-31T05:19:55;8.93;;;5.45;;
27225;SDS011;14732;51.074;3.788;2023-07-31T05:22:23;12.40;;;6.20;;
27225;SDS011;14732;51.074;3.788;2023-07-31T05:24:50;15.68;;;6.85;;
27225;SDS011;14732;51.074;3.788;2023-07-31T05:27:19;12.02;;;6.03;;
27225;SDS011;14732;51.074;3.788;2023-07-31T05:29:46;11.77;;;5.35;;
27225;SDS011;14732;51.074;3.788;2023-07-31T05:32:13;13.32;;;6.03;;
27225;SDS011;14732;51.074;3.788;2023-07-31T05:34:41;11.73;;;5.63;;
27225;SDS011;14732;51.074;3.788;2023-07-31T05:37:09;10.30;;;5.80;;
27225;SDS011;14732;51.074;3.788;2023-07-31T05:39:37;16.20;;;5.90;;
27225;SDS011;14732;51.074;3.788;2023-07-31T05:42:05;11.75;;;6.13;;
27225;SDS011;14732;51.074;3.788;2023-07-31T05:44:35;12.55;;;5.47;;
27225;SDS011;14732;51.074;3.788;2023-07-31T05:47:03;13.55;;;6.38;;
27225;SDS011;14732;51.074;3.788;2023-07-31T05:49:34;11.38;;;5.60;;
27225;SDS011;14732;51.074;3.788;2023-07-31T05:52:02;12.18;;;5.85;;
27225;SDS011;14732;51.074;3.788;2023-07-31T05:54:31;11.07;;;6.18;;
27225;SDS011;14732;51.074;3.788;2023-07-31T05:56:58;12.75;;;5.82;;
27225;SDS011;14732;51.074;3.788;2023-07-31T05:59:26;10.40;;;5.72;;
27225;SDS011;14732;51.074;3.788;2023-07-31T06:01:53;10.27;;;5.32;;
27225;SDS011;14732;51.074;3.788;2023-07-31T06:04:21;13.05;;;5.72;;
27225;SDS011;14732;51.074;3.788;2023-07-31T06:06:51;9.02;;;5.13;;
27225;SDS011;14732;51.074;3.788;2023-07-31T06:09:18;9.82;;;5.13;;
27225;SDS011;14732;51.074;3.788;2023-07-31T06:11:46;15.50;;;5.55;;
27225;SDS011;14732;51.074;3.788;2023-07-31T06:14:13;11.65;;;5.40;;
27225;SDS011;14732;51.074;3.788;2023-07-31T06:16:41;12.10;;;5.57;;
27225;SDS011;14732;51.074;3.788;2023-07-31T06:19:09;10.80;;;5.10;;
27225;SDS011;14732;51.074;3.788;2023-07-31T06:21:38;14.25;;;5.28;;
27225;SDS011;14732;51.074;3.788;2023-07-31T06:24:07;11.45;;;5.28;;
27225;SDS011;14732;51.074;3.788;2023-07-31T06:26:35;10.00;;;4.82;;
27225;SDS011;14732;51.074;3.788;2023-07-31T06:29:03;16.40;;;5.35;;
27225;SDS011;14732;51.074;3.788;2023-07-31T06:31:30;13.52;;;5.32;;
27225;SDS011;14732;51.074;3.788;2023-07-31T06:33:58;14.13;;;5.00;;
27225;SDS011;14732;51.074;3.788;2023-07-31T06:36:30;11.65;;;4.93;;
27225;SDS011;14732;51.074;3.788;2023-07-31T06:38:58;12.52;;;5.07;;
27225;SDS011;14732;51.074;3.788;2023-07-31T06:41:26;11.48;;;4.50;;
27225;SDS011;14732;51.074;3.788;2023-07-31T06:43:53;16.27;;;4.68;;
27225;SDS011;14732;51.074;3.788;2023-07-31T06:46:20;8.18;;;4.43;;
27225;SDS011;14732;51.074;3.788;2023-07-31T06:48:48;10.05;;;4.65;;
27225;SDS011;14732;51.074;3.788;2023-07-31T06:51:29;11.43;;;4.28;;
27225;SDS011;14732;51.074;3.788;2023-07-31T06:53:58;10.82;;;4.53;;
27225;SDS011;14732;51.074;3.788;2023-07-31T06:56:26;10.43;;;4.28;;
27225;SDS011;14732;51.074;3.788;2023-07-31T06:58:55;14.25;;;4.97;;
27225;SDS011;14732;51.074;3.788;2023-07-31T07:01:23;7.22;;;4.35;;
27225;SDS011;14732;51.074;3.788;2023-07-31T07:03:50;10.32;;;4.45;;
27225;SDS011;14732;51.074;3.788;2023-07-31T07:06:30;10.70;;;4.82;;
27225;SDS011;14732;51.074;3.788;2023-07-31T07:09:02;12.00;;;4.38;;
27225;SDS011;14732;51.074;3.788;2023-07-31T07:11:29;12.85;;;4.63;;
27225;SDS011;14732;51.074;3.788;2023-07-31T07:13:57;10.77;;;4.47;;
27225;SDS011;14732;51.074;3.788;2023-07-31T07:16:25;11.77;;;4.15;;
27225;SDS011;14732;51.074;3.788;2023-07-31T07:18:54;13.27;;;4.05;;
27225;SDS011;14732;51.074;3.788;2023-07-31T07:21:56;12.75;;;4.32;;
27225;SDS011;14732;51.074;3.788;2023-07-31T07:24:16;9.45;;;4.25;;
27225;SDS011;14732;51.074;3.788;2023-07-31T07:26:44;11.40;;;4.03;;
27225;SDS011;14732;51.074;3.788;2023-07-31T07:29:12;10.10;;;4.13;;
27225;SDS011;14732;51.074;3.788;2023-07-31T07:31:39;8.55;;;4.18;;
27225;SDS011;14732;51.074;3.788;2023-07-31T07:34:11;9.15;;;3.63;;
27225;SDS011;14732;51.074;3.788;2023-07-31T07:36:39;5.50;;;3.60;;
27225;SDS011;14732;51.074;3.788;2023-07-31T07:39:06;7.07;;;3.78;;
27225;SDS011;14732;51.074;3.788;2023-07-31T07:41:35;9.48;;;3.80;;
27225;SDS011;14732;51.074;3.788;2023-07-31T07:44:03;8.02;;;3.60;;
27225;SDS011;14732;51.074;3.788;2023-07-31T07:46:31;11.18;;;3.75;;
27225;SDS011;14732;51.074;3.788;2023-07-31T07:48:59;8.52;;;3.65;;
27225;SDS011;14732;51.074;3.788;2023-07-31T07:51:32;8.88;;;3.97;;
27225;SDS011;14732;51.074;3.788;2023-07-31T07:54:00;7.05;;;3.42;;
27225;SDS011;14732;51.074;3.788;2023-07-31T07:56:28;8.00;;;3.58;;
27225;SDS011;14732;51.074;3.788;2023-07-31T07:58:55;5.55;;;3.47;;
27225;SDS011;14732;51.074;3.788;2023-07-31T08:01:24;8.15;;;3.55;;
27225;SDS011;14732;51.074;3.788;2023-07-31T08:03:58;6.28;;;3.20;;
27225;SDS011;14732;51.074;3.788;2023-07-31T08:06:31;7.88;;;3.50;;
27225;SDS011;14732;51.074;3.788;2023-07-31T08:08:59;7.45;;;3.35;;
27225;SDS011;14732;51.074;3.788;2023-07-31T08:11:31;9.02;;;3.20;;
27225;SDS011;14732;51.074;3.788;2023-07-31T08:14:01;6.20;;;2.95;;
27225;SDS011;14732;51.074;3.788;2023-07-31T08:16:28;6.07;;;3.40;;
27225;SDS011;14732;51.074;3.788;2023-07-31T08:18:55;9.05;;;3.42;;
27225;SDS011;14732;51.074;3.788;2023-07-31T08:21:24;5.93;;;2.70;;
27225;SDS011;14732;51.074;3.788;2023-07-31T08:24:00;8.52;;;2.60;;
27225;SDS011;14732;51.074;3.788;2023-07-31T08:26:28;4.78;;;2.58;;
27225;SDS011;14732;51.074;3.788;2023-07-31T08:28:56;7.65;;;2.78;;
27225;SDS011;14732;51.074;3.788;2023-07-31T08:31:23;5.45;;;2.60;;
27225;SDS011;14732;51.074;3.788;2023-07-31T08:33:52;6.68;;;2.88;;
27225;SDS011;14732;51.074;3.788;2023-07-31T08:36:29;6.28;;;2.50;;
27225;SDS011;14732;51.074;3.788;2023-07-31T08:38:58;6.78;;;2.15;;
27225;SDS011;14732;51.074;3.788;2023-07-31T08:41:26;4.07;;;1.92;;
27225;SDS011;14732;51.074;3.788;2023-07-31T08:43:54;4.30;;;2.40;;
27225;SDS011;14732;51.074;3.788;2023-07-31T08:46:22;6.15;;;2.53;;
27225;SDS011;14732;51.074;3.788;2023-07-31T08:48:51;2.80;;;1.95;;
27225;SDS011;14732;51.074;3.788;2023-07-31T08:51:54;7.18;;;2.60;;
27225;SDS011;14732;51.074;3.788;2023-07-31T08:54:16;3.70;;;2.05;;
27225;SDS011;14732;51.074;3.788;2023-07-31T08:56:43;4.15;;;2.10;;
27225;SDS011;14732;51.074;3.788;2023-07-31T08:59:12;5.93;;;2.28;;
27225;SDS011;14732;51.074;3.788;2023-07-31T09:01:43;4.45;;;2.17;;
27225;SDS011;14732;51.074;3.788;2023-07-31T09:04:13;6.45;;;2.42;;
27225;SDS011;14732;51.074;3.788;2023-07-31T09:06:42;3.70;;;2.30;;
27225;SDS011;14732;51.074;3.788;2023-07-31T09:09:11;5.45;;;2.05;;
27225;SDS011;14732;51.074;3.788;2023-07-31T09:11:42;2.50;;;2.15;;
27225;SDS011;14732;51.074;3.788;2023-07-31T09:14:09;3.10;;;2.45;;
27225;SDS011;14732;51.074;3.788;2023-07-31T09:16:53;7.43;;;2.53;;
27225;SDS011;14732;51.074;3.788;2023-07-31T09:19:34;4.22;;;2.58;;
27225;SDS011;14732;51.074;3.788;2023-07-31T09:22:05;4.30;;;2.45;;
27225;SDS011;14732;51.074;3.788;2023-07-31T09:24:33;5.28;;;2.45;;
27225;SDS011;14732;51.074;3.788;2023-07-31T09:27:01;3.33;;;2.25;;
27225;SDS011;14732;51.074;3.788;2023-07-31T09:29:28;5.13;;;2.20;;
27225;SDS011;14732;51.074;3.788;2023-07-31T09:31:56;3.72;;;2.33;;
27225;SDS011;14732;51.074;3.788;2023-07-31T09:34:30;5.68;;;2.50;;
27225;SDS011;14732;51.074;3.788;2023-07-31T09:37:04;5.43;;;2.70;;
27225;SDS011;14732;51.074;3.788;2023-07-31T09:39:32;3.90;;;2.65;;
27225;SDS011;14732;51.074;3.788;2023-07-31T09:42:11;4.63;;;2.97;;
27225;SDS011;14732;51.074;3.788;2023-07-31T09:44:39;6.63;;;2.80;;
27225;SDS011;14732;51.074;3.788;2023-07-31T09:47:06;5.30;;;2.65;;
27225;SDS011;14732;51.074;3.788;2023-07-31T09:49:49;3.75;;;2.90;;
27225;SDS011;14732;51.074;3.788;2023-07-31T09:52:17;4.95;;;3.42;;
27225;SDS011;14732;51.074;3.788;2023-07-31T09:54:44;5.07;;;3.13;;
27225;SDS011;14732;51.074;3.788;2023-07-31T09:57:12;6.15;;;2.78;;
27225;SDS011;14732;51.074;3.788;2023-07-31T09:59:42;5.00;;;2.83;;
27225;SDS011;14732;51.074;3.788;2023-07-31T10:02:10;6.35;;;3.17;;
27225;SDS011;14732;51.074;3.788;2023-07-31T10:04:43;7.43;;;3.05;;
27225;SDS011;14732;51.074;3.788;2023-07-31T10:07:11;11.05;;;3.50;;
27225;SDS011;14732;51.074;3.788;2023-07-31T10:09:40;10.60;;;3.77;;
27225;SDS011;14732;51.074;3.788;2023-07-31T10:12:08;4.13;;;3.40;;
27225;SDS011;14732;51.074;3.788;2023-07-31T10:17:05;6.28;;;3.33;;
27225;SDS011;14732;51.074;3.788;2023-07-31T10:19:34;7.25;;;3.67;;
27225;SDS011;14732;51.074;3.788;2023-07-31T10:22:03;8.00;;;3.80;;
27225;SDS011;14732;51.074;3.788;2023-07-31T10:24:30;6.18;;;4.07;;
27225;SDS011;14732;51.074;3.788;2023-07-31T10:26:58;10.90;;;4.47;;
27225;SDS011;14732;51.074;3.788;2023-07-31T10:29:27;9.00;;;4.25;;
27225;SDS011;14732;51.074;3.788;2023-07-31T10:31:56;12.00;;;4.05;;
27225;SDS011;14732;51.074;3.788;2023-07-31T10:34:24;8.70;;;4.78;;
27225;SDS011;14732;51.074;3.788;2023-07-31T10:37:19;6.28;;;4.03;;
27225;SDS011;14732;51.074;3.788;2023-07-31T10:39:57;7.60;;;3.92;;
27225;SDS011;14732;51.074;3.788;2023-07-31T10:44:58;8.48;;;4.00;;
27225;SDS011;14732;51.074;3.788;2023-07-31T10:47:26;9.80;;;4.23;;
27225;SDS011;14732;51.074;3.788;2023-07-31T10:50:10;8.65;;;3.95;;
27225;SDS011;14732;51.074;3.788;2023-07-31T10:52:37;6.20;;;3.70;;
27225;SDS011;14732;51.074;3.788;2023-07-31T10:55:14;8.70;;;4.93;;
27225;SDS011;14732;51.074;3.788;2023-07-31T10:57:48;9.10;;;3.92;;
27225;SDS011;14732;51.074;3.788;2023-07-31T11:00:19;7.05;;;3.88;;
27225;SDS011;14732;51.074;3.788;2023-07-31T11:03:01;7.40;;;3.67;;
27225;SDS011;14732;51.074;3.788;2023-07-31T11:05:48;6.57;;;3.88;;
27225;SDS011;14732;51.074;3.788;2023-07-31T11:08:21;6.45;;;3.22;;
27225;SDS011;14732;51.074;3.788;2023-07-31T11:10:51;7.20;;;3.70;;
27225;SDS011;14732;51.074;3.788;2023-07-31T11:13:31;5.93;;;3.33;;
27225;SDS011;14732;51.074;3.788;2023-07-31T11:16:24;4.65;;;3.38;;
27225;SDS011;14732;51.074;3.788;2023-07-31T11:18:51;9.70;;;3.35;;
27225;SDS011;14732;51.074;3.788;2023-07-31T11:24:00;8.30;;;3.85;;
27225;SDS011;14732;51.074;3.788;2023-07-31T11:26:28;6.32;;;3.08;;
27225;SDS011;14732;51.074;3.788;2023-07-31T11:28:56;5.30;;;2.97;;
27225;SDS011;14732;51.074;3.788;2023-07-31T11:31:24;7.68;;;3.10;;
27225;SDS011;14732;51.074;3.788;2023-07-31T11:34:03;5.95;;;3.35;;
27225;SDS011;14732;51.074;3.788;2023-07-31T11:39:16;4.38;;;2.88;;
27225;SDS011;14732;51.074;3.788;2023-07-31T11:41:44;8.25;;;3.40;;
27225;SDS011;14732;51.074;3.788;2023-07-31T11:44:11;10.23;;;3.78;;
27225;SDS011;14732;51.074;3.788;2023-07-31T11:46:39;7.43;;;3.92;;
27225;SDS011;14732;51.074;3.788;2023-07-31T11:49:06;7.75;;;4.00;;
27225;SDS011;14732;51.074;3.788;2023-07-31T11:51:33;6.82;;;3.90;;
27225;SDS011;14732;51.074;3.788;2023-07-31T11:54:01;7.88;;;3.95;;
27225;SDS011;14732;51.074;3.788;2023-07-31T11:56:29;6.75;;;3.10;;
27225;SDS011;14732;51.074;3.788;2023-07-31T11:58:58;6.90;;;3.53;;
27225;SDS011;14732;51.074;3.788;2023-07-31T12:01:28;6.88;;;3.60;;
27225;SDS011;14732;51.074;3.788;2023-07-31T12:03:56;6.22;;;3.60;;
27225;SDS011;14732;51.074;3.788;2023-07-31T12:06:34;5.88;;;3.60;;
27225;SDS011;14732;51.074;3.788;2023-07-31T12:09:03;5.57;;;3.70;;
27225;SDS011;14732;51.074;3.788;2023-07-31T12:11:30;9.60;;;4.20;;
27225;SDS011;14732;51.074;3.788;2023-07-31T12:13:58;6.75;;;4.32;;
27225;SDS011;14732;51.074;3.788;2023-07-31T12:16:26;11.10;;;4.40;;
27225;SDS011;14732;51.074;3.788;2023-07-31T12:18:57;9.15;;;4.70;;
27225;SDS011;14732;51.074;3.788;2023-07-31T12:21:29;5.47;;;4.18;;
27225;SDS011;14732;51.074;3.788;2023-07-31T12:23:57;8.57;;;4.43;;
27225;SDS011;14732;51.074;3.788;2023-07-31T12:26:25;10.57;;;4.50;;
27225;SDS011;14732;51.074;3.788;2023-07-31T12:29:00;8.98;;;4.53;;
27225;SDS011;14732;51.074;3.788;2023-07-31T12:31:28;9.75;;;4.55;;
27225;SDS011;14732;51.074;3.788;2023-07-31T12:34:00;10.20;;;4.82;;
27225;SDS011;14732;51.074;3.788;2023-07-31T12:36:29;9.27;;;5.18;;
27225;SDS011;14732;51.074;3.788;2023-07-31T12:39:06;9.00;;;5.20;;
27225;SDS011;14732;51.074;3.788;2023-07-31T12:41:33;9.48;;;5.05;;
27225;SDS011;14732;51.074;3.788;2023-07-31T12:44:01;11.43;;;6.10;;
27225;SDS011;14732;51.074;3.788;2023-07-31T12:46:29;12.02;;;5.50;;
27225;SDS011;14732;51.074;3.788;2023-07-31T12:48:57;11.32;;;5.80;;
27225;SDS011;14732;51.074;3.788;2023-07-31T12:51:31;9.52;;;5.50;;
27225;SDS011;14732;51.074;3.788;2023-07-31T12:53:58;10.07;;;5.68;;
27225;SDS011;14732;51.074;3.788;2023-07-31T12:56:26;11.52;;;5.28;;
27225;SDS011;14732;51.074;3.788;2023-07-31T12:58:54;8.85;;;3.85;;
27225;SDS011;14732;51.074;3.788;2023-07-31T13:01:22;5.55;;;3.38;;
27225;SDS011;14732;51.074;3.788;2023-07-31T13:03:49;5.10;;;3.53;;
27225;SDS011;14732;51.074;3.788;2023-07-31T13:06:28;8.23;;;3.67;;
27225;SDS011;14732;51.074;3.788;2023-07-31T13:08:57;5.28;;;3.53;;
27225;SDS011;14732;51.074;3.788;2023-07-31T13:11:25;6.47;;;3.50;;
27225;SDS011;14732;51.074;3.788;2023-07-31T13:13:52;6.95;;;3.40;;
27225;SDS011;14732;51.074;3.788;2023-07-31T13:16:19;5.22;;;2.92;;
27225;SDS011;14732;51.074;3.788;2023-07-31T13:18:47;7.35;;;3.33;;
27225;SDS011;14732;51.074;3.788;2023-07-31T13:21:27;5.18;;;3.20;;
27225;SDS011;14732;51.074;3.788;2023-07-31T13:24:00;3.67;;;2.67;;
27225;SDS011;14732;51.074;3.788;2023-07-31T13:26:32;4.65;;;2.85;;
27225;SDS011;14732;51.074;3.788;2023-07-31T13:29:01;6.60;;;2.42;;
27225;SDS011;14732;51.074;3.788;2023-07-31T13:31:34;5.78;;;2.40;;
27225;SDS011;14732;51.074;3.788;2023-07-31T13:34:01;3.83;;;2.28;;
27225;SDS011;14732;51.074;3.788;2023-07-31T13:36:30;3.47;;;1.77;;
27225;SDS011;14732;51.074;3.788;2023-07-31T13:38:59;3.78;;;1.92;;
27225;SDS011;14732;51.074;3.788;2023-07-31T13:41:27;3.10;;;1.85;;
27225;SDS011;14732;51.074;3.788;2023-07-31T13:43:55;2.63;;;1.80;;
27225;SDS011;14732;51.074;3.788;2023-07-31T13:46:23;2.65;;;1.50;;
27225;SDS011;14732;51.074;3.788;2023-07-31T13:48:51;5.88;;;1.80;;
27225;SDS011;14732;51.074;3.788;2023-07-31T13:51:32;2.70;;;1.90;;
27225;SDS011;14732;51.074;3.788;2023-07-31T13:54:03;4.00;;;1.55;;
27225;SDS011;14732;51.074;3.788;2023-07-31T13:56:32;5.15;;;1.65;;
27225;SDS011;14732;51.074;3.788;2023-07-31T13:58:59;2.95;;;1.63;;
27225;SDS011;14732;51.074;3.788;2023-07-31T14:01:27;2.42;;;1.70;;
27225;SDS011;14732;51.074;3.788;2023-07-31T14:03:55;5.65;;;2.25;;
27225;SDS011;14732;51.074;3.788;2023-07-31T14:09:21;3.60;;;2.05;;
27225;SDS011;14732;51.074;3.788;2023-07-31T14:11:49;5.43;;;2.20;;
27225;SDS011;14732;51.074;3.788;2023-07-31T14:14:17;4.43;;;2.35;;
27225;SDS011;14732;51.074;3.788;2023-07-31T14:16:44;5.50;;;2.72;;
27225;SDS011;14732;51.074;3.788;2023-07-31T14:19:12;5.30;;;2.65;;
27225;SDS011;14732;51.074;3.788;2023-07-31T14:21:40;4.95;;;2.75;;
27225;SDS011;14732;51.074;3.788;2023-07-31T14:24:08;4.47;;;2.55;;
27225;SDS011;14732;51.074;3.788;2023-07-31T14:26:36;6.72;;;2.92;;
27225;SDS011;14732;51.074;3.788;2023-07-31T14:29:04;5.43;;;2.83;;
27225;SDS011;14732;51.074;3.788;2023-07-31T14:31:32;6.85;;;2.63;;
27225;SDS011;14732;51.074;3.788;2023-07-31T14:33:58;5.45;;;2.22;;
27225;SDS011;14732;51.074;3.788;2023-07-31T14:36:31;5.18;;;2.42;;
27225;SDS011;14732;51.074;3.788;2023-07-31T14:38:59;4.88;;;2.72;;
27225;SDS011;14732;51.074;3.788;2023-07-31T14:41:27;6.05;;;2.85;;
27225;SDS011;14732;51.074;3.788;2023-07-31T14:43:55;4.85;;;2.78;;
27225;SDS011;14732;51.074;3.788;2023-07-31T14:46:23;5.13;;;2.50;;
27225;SDS011;14732;51.074;3.788;2023-07-31T14:48:51;4.32;;;2.22;;
27225;SDS011;14732;51.074;3.788;2023-07-31T14:51:32;4.18;;;2.40;;
27225;SDS011;14732;51.074;3.788;2023-07-31T14:54:00;6.97;;;2.60;;
27225;SDS011;14732;51.074;3.788;2023-07-31T14:56:27;4.97;;;2.10;;
27225;SDS011;14732;51.074;3.788;2023-07-31T14:58:55;4.63;;;2.20;;
27225;SDS011;14732;51.074;3.788;2023-07-31T15:01:23;3.00;;;2.00;;
27225;SDS011;14732;51.074;3.788;2023-07-31T15:03:50;2.83;;;1.73;;
27225;SDS011;14732;51.074;3.788;2023-07-31T15:06:36;2.67;;;1.60;;
27225;SDS011;14732;51.074;3.788;2023-07-31T15:09:04;6.25;;;1.65;;
27225;SDS011;14732;51.074;3.788;2023-07-31T15:11:32;2.63;;;1.63;;
27225;SDS011;14732;51.074;3.788;2023-07-31T15:14:00;3.05;;;1.60;;
27225;SDS011;14732;51.074;3.788;2023-07-31T15:16:27;3.72;;;1.45;;
27225;SDS011;14732;51.074;3.788;2023-07-31T15:18:57;3.40;;;2.63;;